Louise B — D5JM3 — position and weather

sailwx.info

Track history (hours):
 
Tides and Currents Weather Stations Pressure Air Temp Water Temp Dewpoint Dewpoint Depression Visibility Wind Speed Wind Dir Waves Ship Positions

Louise B

Last reported at 2018-Jun-16 10:00 UTC. Time now 2018-Jun-20 11:15 UTC.
Position N 27°60' W 016°21'.

Length 187 m; draft 11.6 m.

Type: Cargo ship. MMSI: 636017138.

Date/timePositionNaut miles runAvg speedWind from/ knotsBaromVisibWave heightAir tempDewpointWater temp
2018-Jun-16 10:00N 27°60' W 016°21'612.2
2018-Jun-16 09:29N 28°05' W 016°17'612.0
2018-Jun-16 09:00N 28°09' W 016°12'611.8
2018-Jun-16 08:30N 28°14' W 016°08'612.0
2018-Jun-16 08:00N 28°18' W 016°04'612.0
2018-Jun-16 07:30N 28°23' W 015°59'611.9
2018-Jun-16 07:00N 28°27' W 015°55'611.7
2018-Jun-16 06:30N 28°31' W 015°50'611.4
2018-Jun-16 06:00N 28°36' W 015°46'611.2
2018-Jun-16 05:30N 28°39' W 015°41'611.2
2018-Jun-16 05:00N 28°42' W 015°36'611.4
2018-Jun-16 04:30N 28°46' W 015°30'611.6
2018-Jun-16 04:00N 28°49' W 015°25'612.0
2018-Jun-16 03:30N 28°52' W 015°19'611.9
2018-Jun-16 03:00N 28°55' W 015°13'611.7
2018-Jun-16 02:30N 28°59' W 015°08'611.4
2018-Jun-16 01:59N 29°02' W 015°02'611.2
2018-Jun-16 01:29N 29°06' W 014°57'511.3
2018-Jun-16 01:00N 29°09' W 014°52'611.4
2018-Jun-16 00:30N 29°12' W 014°47'611.6
2018-Jun-15 23:58N 29°16' W 014°41'1711.7
2018-Jun-15 22:31N 29°26' W 014°26'012.0
2018-Jun-15 22:29N 29°27' W 014°26'2411.3
2018-Jun-15 20:20N 29°42' W 014°04'511.2
2018-Jun-15 19:56N 29°45' W 014°00'46411.2
2018-Jun-14 02:34N 35°08' W 007°25'111.3
2018-Jun-14 02:30N 35°08' W 007°24'611.5
2018-Jun-14 01:59N 35°12' W 007°19'611.6
2018-Jun-14 01:29N 35°16' W 007°14'611.7
2018-Jun-14 01:00N 35°20' W 007°09'611.9
2018-Jun-14 00:30N 35°24' W 007°03'7910.4
2018-Jun-13 16:55N 35°58' W 005°35'3 7.5
2018-Jun-13 16:28N 35°59' W 005°31'3 7.6
2018-Jun-13 16:00N 36°00' W 005°27'4 7.5
2018-Jun-13 15:30N 36°03' W 005°24'4 8.7
2018-Jun-13 15:00N 36°07' W 005°22'0 0.6
2018-Jun-13 14:30N 36°07' W 005°22'0 0.1
2018-Jun-13 12:42N 36°07' W 005°22'0 0.0
2018-Jun-13 12:30N 36°07' W 005°22'0 0.0
2018-Jun-13 12:00N 36°07' W 005°22'0 0.0
2018-Jun-13 11:06N 36°07' W 005°22'0 0.1
2018-Jun-13 10:51N 36°07' W 005°22'0 0.1
2018-Jun-13 10:18N 36°07' W 005°22'0 0.0
2018-Jun-13 09:57N 36°07' W 005°22'0 0.1
2018-Jun-13 08:54N 36°07' W 005°22'0 0.0
2018-Jun-13 08:18N 36°07' W 005°22'0 0.3
2018-Jun-13 07:58N 36°07' W 005°22'1 1.2
2018-Jun-13 07:26N 36°06' W 005°22'1 2.1
2018-Jun-13 07:00N 36°05' W 005°21'2 3.9
2018-Jun-13 06:30N 36°05' W 005°19'1 3.0
2018-Jun-13 06:00N 36°04' W 005°17'1 1.2
2018-Jun-13 05:30N 36°04' W 005°18'1 1.3
2018-Jun-13 04:59N 36°04' W 005°17'1 1.5
2018-Jun-13 04:30N 36°04' W 005°16'4 8.5
2018-Jun-13 04:00N 36°07' W 005°13'2 4.1
2018-Jun-13 03:30N 36°09' W 005°12'0 0.6
2018-Jun-13 03:00N 36°09' W 005°12'0 0.3
2018-Jun-13 02:30N 36°09' W 005°12'0 0.5
2018-Jun-13 02:00N 36°09' W 005°12'0 0.3
2018-Jun-13 01:30N 36°09' W 005°12'0 0.3
2018-Jun-13 01:00N 36°09' W 005°12'0 0.3
2018-Jun-13 00:30N 36°09' W 005°12'0 0.2
2018-Jun-12 23:57N 36°09' W 005°11'0 0.5
2018-Jun-12 23:23N 36°09' W 005°11'196 9.9
2018-Jun-12 03:32N 37°04' W 001°17'012.0
2018-Jun-12 03:30N 37°04' W 001°17'612.2
2018-Jun-12 02:59N 37°08' W 001°11'612.2
2018-Jun-12 02:30N 37°12' W 001°05'612.4
2018-Jun-12 02:00N 37°16' W 000°59'612.3
2018-Jun-12 01:29N 37°20' W 000°53'612.4
2018-Jun-12 01:00N 37°24' W 000°48'612.4
2018-Jun-12 00:30N 37°29' W 000°42'712.6
2018-Jun-11 23:59N 37°33' W 000°36'712.6
2018-Jun-11 23:27N 37°38' W 000°31'612.7
2018-Jun-11 23:00N 37°43' W 000°27'612.5
2018-Jun-11 22:30N 37°49' W 000°24'712.8
2018-Jun-11 21:59N 37°55' W 000°24'612.6
2018-Jun-11 21:30N 38°01' W 000°21'612.5
2018-Jun-11 21:00N 38°07' W 000°18'612.5
2018-Jun-11 20:30N 38°13' W 000°22'612.3
2018-Jun-11 20:00N 38°17' W 000°27'  
2018-Jun-09 04:56N 38°19' W 000°29'1 1.4
2018-Jun-09 04:28N 38°19' W 000°28'1 1.7
2018-Jun-09 03:47N 38°19' W 000°27'0 0.1
2018-Jun-09 00:46N 38°19' W 000°27'0 0.1
2018-Jun-08 23:22N 38°20' W 000°27'0 0.0
2018-Jun-08 19:40N 38°19' W 000°27'0 0.0
2018-Jun-08 19:22N 38°19' W 000°27'0 0.0
2018-Jun-08 18:58N 38°19' W 000°27'0 0.0
2018-Jun-08 16:40N 38°20' W 000°27'1 0.3
2018-Jun-08 15:06N 38°19' W 000°27'1 5.5
2018-Jun-08 14:58N 38°18' W 000°26'511.1
2018-Jun-08 14:29N 38°14' W 000°24'713.5
2018-Jun-08 14:00N 38°07' W 000°22'612.1
2018-Jun-08 13:30N 38°01' W 000°24'612.1
2018-Jun-08 13:00N 37°56' W 000°26'612.0
2018-Jun-08 12:30N 37°50' W 000°27'612.2
2018-Jun-08 12:00N 37°43' W 000°27'612.2
2018-Jun-08 11:30N 37°37' W 000°28'612.3
2018-Jun-08 11:00N 37°32' W 000°33'612.5
2018-Jun-08 10:30N 37°28' W 000°38'612.7
2018-Jun-08 10:00N 37°24' W 000°44'612.7
2018-Jun-08 09:30N 37°19' W 000°50'712.9
2018-Jun-08 08:59N 37°15' W 000°57'612.8
2018-Jun-08 08:30N 37°11' W 001°02'1312.6
2018-Jun-08 07:27N 37°02' W 001°15'19511.1
2018-Jun-07 13:53N 36°01' W 005°05'514.4
2018-Jun-07 13:30N 36°01' W 005°12'713.9
2018-Jun-07 13:00N 35°59' W 005°20'713.9
2018-Jun-07 12:30N 35°57' W 005°28'  
Track history (hours):
 
Tides and Currents Weather Stations Pressure Air Temp Water Temp Dewpoint Dewpoint Depression Visibility Wind Speed Wind Dir Waves Ship Positions

Louise B

Last reported at 2018-Jun-16 10:00 UTC. Time now 2018-Jun-20 11:15 UTC.
Position N 27°60' W 016°21'.

Length 187 m; draft 11.6 m.

Type: Cargo ship. MMSI: 636017138.

Date/timePositionNaut miles runAvg speedWind from/ knotsBaromVisibWave heightAir tempDewpointWater temp
2018-Jun-16 10:00N 27°60' W 016°21'612.2
2018-Jun-16 09:29N 28°05' W 016°17'612.0
2018-Jun-16 09:00N 28°09' W 016°12'611.8
2018-Jun-16 08:30N 28°14' W 016°08'612.0
2018-Jun-16 08:00N 28°18' W 016°04'612.0
2018-Jun-16 07:30N 28°23' W 015°59'611.9
2018-Jun-16 07:00N 28°27' W 015°55'611.7
2018-Jun-16 06:30N 28°31' W 015°50'611.4
2018-Jun-16 06:00N 28°36' W 015°46'611.2
2018-Jun-16 05:30N 28°39' W 015°41'611.2
2018-Jun-16 05:00N 28°42' W 015°36'611.4
2018-Jun-16 04:30N 28°46' W 015°30'611.6
2018-Jun-16 04:00N 28°49' W 015°25'612.0
2018-Jun-16 03:30N 28°52' W 015°19'611.9
2018-Jun-16 03:00N 28°55' W 015°13'611.7
2018-Jun-16 02:30N 28°59' W 015°08'611.4
2018-Jun-16 01:59N 29°02' W 015°02'611.2
2018-Jun-16 01:29N 29°06' W 014°57'511.3
2018-Jun-16 01:00N 29°09' W 014°52'611.4
2018-Jun-16 00:30N 29°12' W 014°47'611.6
2018-Jun-15 23:58N 29°16' W 014°41'1711.7
2018-Jun-15 22:31N 29°26' W 014°26'012.0
2018-Jun-15 22:29N 29°27' W 014°26'2411.3
2018-Jun-15 20:20N 29°42' W 014°04'511.2
2018-Jun-15 19:56N 29°45' W 014°00'46411.2
2018-Jun-14 02:34N 35°08' W 007°25'111.3
2018-Jun-14 02:30N 35°08' W 007°24'611.5
2018-Jun-14 01:59N 35°12' W 007°19'611.6
2018-Jun-14 01:29N 35°16' W 007°14'611.7
2018-Jun-14 01:00N 35°20' W 007°09'611.9
2018-Jun-14 00:30N 35°24' W 007°03'7910.4
2018-Jun-13 16:55N 35°58' W 005°35'3 7.5
2018-Jun-13 16:28N 35°59' W 005°31'3 7.6
2018-Jun-13 16:00N 36°00' W 005°27'4 7.5
2018-Jun-13 15:30N 36°03' W 005°24'4 8.7
2018-Jun-13 15:00N 36°07' W 005°22'0 0.6
2018-Jun-13 14:30N 36°07' W 005°22'0 0.1
2018-Jun-13 12:42N 36°07' W 005°22'0 0.0
2018-Jun-13 12:30N 36°07' W 005°22'0 0.0
2018-Jun-13 12:00N 36°07' W 005°22'0 0.0
2018-Jun-13 11:06N 36°07' W 005°22'0 0.1
2018-Jun-13 10:51N 36°07' W 005°22'0 0.1
2018-Jun-13 10:18N 36°07' W 005°22'0 0.0
2018-Jun-13 09:57N 36°07' W 005°22'0 0.1
2018-Jun-13 08:54N 36°07' W 005°22'0 0.0
2018-Jun-13 08:18N 36°07' W 005°22'0 0.3
2018-Jun-13 07:58N 36°07' W 005°22'1 1.2
2018-Jun-13 07:26N 36°06' W 005°22'1 2.1
2018-Jun-13 07:00N 36°05' W 005°21'2 3.9
2018-Jun-13 06:30N 36°05' W 005°19'1 3.0
2018-Jun-13 06:00N 36°04' W 005°17'1 1.2
2018-Jun-13 05:30N 36°04' W 005°18'1 1.3
2018-Jun-13 04:59N 36°04' W 005°17'1 1.5
2018-Jun-13 04:30N 36°04' W 005°16'4 8.5
2018-Jun-13 04:00N 36°07' W 005°13'2 4.1
2018-Jun-13 03:30N 36°09' W 005°12'0 0.6
2018-Jun-13 03:00N 36°09' W 005°12'0 0.3
2018-Jun-13 02:30N 36°09' W 005°12'0 0.5
2018-Jun-13 02:00N 36°09' W 005°12'0 0.3
2018-Jun-13 01:30N 36°09' W 005°12'0 0.3
2018-Jun-13 01:00N 36°09' W 005°12'0 0.3
2018-Jun-13 00:30N 36°09' W 005°12'0 0.2
2018-Jun-12 23:57N 36°09' W 005°11'0 0.5
2018-Jun-12 23:23N 36°09' W 005°11'196 9.9
2018-Jun-12 03:32N 37°04' W 001°17'012.0
2018-Jun-12 03:30N 37°04' W 001°17'612.2
2018-Jun-12 02:59N 37°08' W 001°11'612.2
2018-Jun-12 02:30N 37°12' W 001°05'612.4
2018-Jun-12 02:00N 37°16' W 000°59'612.3
2018-Jun-12 01:29N 37°20' W 000°53'612.4
2018-Jun-12 01:00N 37°24' W 000°48'612.4
2018-Jun-12 00:30N 37°29' W 000°42'712.6
2018-Jun-11 23:59N 37°33' W 000°36'712.6
2018-Jun-11 23:27N 37°38' W 000°31'612.7
2018-Jun-11 23:00N 37°43' W 000°27'612.5
2018-Jun-11 22:30N 37°49' W 000°24'712.8
2018-Jun-11 21:59N 37°55' W 000°24'612.6
2018-Jun-11 21:30N 38°01' W 000°21'612.5
2018-Jun-11 21:00N 38°07' W 000°18'612.5
2018-Jun-11 20:30N 38°13' W 000°22'612.3
2018-Jun-11 20:00N 38°17' W 000°27'  
2018-Jun-09 04:56N 38°19' W 000°29'1 1.4
2018-Jun-09 04:28N 38°19' W 000°28'1 1.7
2018-Jun-09 03:47N 38°19' W 000°27'0 0.1
2018-Jun-09 00:46N 38°19' W 000°27'0 0.1
2018-Jun-08 23:22N 38°20' W 000°27'0 0.0
2018-Jun-08 19:40N 38°19' W 000°27'0 0.0
2018-Jun-08 19:22N 38°19' W 000°27'0 0.0
2018-Jun-08 18:58N 38°19' W 000°27'0 0.0
2018-Jun-08 16:40N 38°20' W 000°27'1 0.3
2018-Jun-08 15:06N 38°19' W 000°27'1 5.5
2018-Jun-08 14:58N 38°18' W 000°26'511.1
2018-Jun-08 14:29N 38°14' W 000°24'713.5
2018-Jun-08 14:00N 38°07' W 000°22'612.1
2018-Jun-08 13:30N 38°01' W 000°24'612.1
2018-Jun-08 13:00N 37°56' W 000°26'612.0
2018-Jun-08 12:30N 37°50' W 000°27'612.2
2018-Jun-08 12:00N 37°43' W 000°27'612.2
2018-Jun-08 11:30N 37°37' W 000°28'612.3
2018-Jun-08 11:00N 37°32' W 000°33'612.5
2018-Jun-08 10:30N 37°28' W 000°38'612.7
2018-Jun-08 10:00N 37°24' W 000°44'612.7
2018-Jun-08 09:30N 37°19' W 000°50'712.9
2018-Jun-08 08:59N 37°15' W 000°57'612.8
2018-Jun-08 08:30N 37°11' W 001°02'1312.6
2018-Jun-08 07:27N 37°02' W 001°15'19511.1
2018-Jun-07 13:53N 36°01' W 005°05'514.4
2018-Jun-07 13:30N 36°01' W 005°12'713.9
2018-Jun-07 13:00N 35°59' W 005°20'713.9
2018-Jun-07 12:30N 35°57' W 005°28'  

Dump ship's entire track history